createdAt,value
2023-02-07T00:01:50.222Z,-1.66
2023-02-07T00:04:18.595Z,-1.86
2023-02-07T00:06:47.734Z,-1.95
2023-02-07T00:09:17.608Z,-1.88
2023-02-07T00:11:47.854Z,-1.94
2023-02-07T00:14:17.328Z,-1.95
2023-02-07T00:17:06.349Z,-2.05
2023-02-07T00:19:34.884Z,-2.09
2023-02-07T00:22:03.842Z,-2.18
2023-02-07T00:24:36.422Z,-2.03
2023-02-07T00:27:05.572Z,-1.84
2023-02-07T00:29:39.876Z,-1.85
2023-02-07T00:32:11.889Z,-1.99
2023-02-07T00:34:40.019Z,-2.16
2023-02-07T00:37:14.568Z,-2.43
2023-02-07T00:39:47.075Z,-2.56
2023-02-07T00:42:19.072Z,-2.66
2023-02-07T00:44:50.597Z,-2.48
2023-02-07T00:47:18.753Z,-2.72
2023-02-07T00:49:47.223Z,-2.70
2023-02-07T00:52:15.872Z,-2.87
2023-02-07T00:57:35.358Z,-3.01
2023-02-07T01:00:05.854Z,-2.55
2023-02-07T01:02:33.927Z,-2.67
2023-02-07T01:05:02.227Z,-2.91
2023-02-07T01:07:30.222Z,-2.71
2023-02-07T01:09:58.420Z,-2.83
2023-02-07T01:12:27.492Z,-2.87
2023-02-07T01:14:55.512Z,-2.94
2023-02-07T01:17:26.301Z,-3.10
2023-02-07T01:19:57.859Z,-3.19
2023-02-07T01:22:25.869Z,-3.21
2023-02-07T01:24:55.047Z,-2.90
2023-02-07T01:27:24.637Z,-2.94
2023-02-07T01:29:52.824Z,-3.27
2023-02-07T01:32:21.084Z,-3.20
2023-02-07T01:34:50.542Z,-2.84
2023-02-07T01:37:20.203Z,-3.25
2023-02-07T01:39:52.638Z,-3.23
2023-02-07T01:42:21.213Z,-2.99
2023-02-07T01:45:06.608Z,-3.22
2023-02-07T01:47:38.341Z,-3.13
2023-02-07T01:50:08.531Z,-2.85
2023-02-07T01:52:40.898Z,-2.12
2023-02-07T01:55:12.068Z,-1.93
2023-02-07T01:57:41.700Z,-2.20
2023-02-07T02:00:11.388Z,-2.43
2023-02-07T02:02:39.762Z,-2.56
2023-02-07T02:05:11.430Z,-2.33
2023-02-07T02:07:40.719Z,-2.28
2023-02-07T02:10:15.495Z,-2.61
2023-02-07T02:13:07.946Z,-2.44
2023-02-07T02:15:46.159Z,-2.97
2023-02-07T02:18:36.425Z,-2.93
2023-02-07T02:21:34.651Z,-2.86
2023-02-07T02:24:32.552Z,-2.73
2023-02-07T02:27:09.252Z,-2.42
2023-02-07T02:30:03.798Z,-2.23
2023-02-07T02:33:02.294Z,-2.61
2023-02-07T02:35:46.774Z,-3.04
2023-02-07T02:38:23.277Z,-3.19
2023-02-07T02:40:56.181Z,-2.77
2023-02-07T02:43:35.092Z,-3.01
2023-02-07T02:46:09.991Z,-3.42
2023-02-07T02:48:40.241Z,-3.61
2023-02-07T02:51:14.763Z,-3.77
2023-02-07T02:53:53.103Z,-3.26
2023-02-07T02:56:49.163Z,-3.42
2023-02-07T02:59:46.743Z,-3.00
2023-02-07T03:02:25.161Z,-3.19
2023-02-07T03:05:16.336Z,-3.52
2023-02-07T03:07:56.185Z,-3.46
2023-02-07T03:10:33.745Z,-3.23
2023-02-07T03:13:12.903Z,-2.74
2023-02-07T03:15:53.176Z,-2.90
2023-02-07T03:18:30.307Z,-3.18
2023-02-07T03:21:04.673Z,-3.04
2023-02-07T03:23:35.566Z,-2.72
2023-02-07T03:26:04.601Z,-2.59
2023-02-07T03:28:34.429Z,-2.76
2023-02-07T03:31:03.895Z,-2.87
2023-02-07T03:33:41.192Z,-3.10
2023-02-07T03:36:19.003Z,-3.21
2023-02-07T03:38:47.749Z,-3.46
2023-02-07T03:41:29.597Z,-3.19
2023-02-07T03:44:06.947Z,-3.01
2023-02-07T03:46:37.898Z,-2.64
2023-02-07T03:49:08.754Z,-2.70
2023-02-07T03:51:39.127Z,-2.74
2023-02-07T03:54:07.220Z,-2.92
2023-02-07T03:56:41.440Z,-3.04
2023-02-07T03:59:12.721Z,-2.97
2023-02-07T04:01:44.190Z,-2.90
2023-02-07T04:04:18.234Z,-3.10
2023-02-07T04:06:49.655Z,-2.97
2023-02-07T04:09:18.003Z,-3.22
2023-02-07T04:11:47.808Z,-3.09
2023-02-07T04:14:15.963Z,-3.17
2023-02-07T04:16:43.987Z,-2.96
2023-02-07T04:19:12.026Z,-3.09
2023-02-07T04:21:40.274Z,-3.24
2023-02-07T04:24:10.400Z,-3.03
2023-02-07T04:26:38.482Z,-3.52
2023-02-07T04:29:07.015Z,-3.79
2023-02-07T04:31:37.507Z,-4.16
2023-02-07T04:34:09.608Z,-4.35
2023-02-07T04:36:38.575Z,-3.86
2023-02-07T04:39:07.136Z,-3.76
2023-02-07T04:41:39.143Z,-3.28
2023-02-07T04:44:07.159Z,-3.25
2023-02-07T04:46:35.409Z,-3.62
2023-02-07T04:49:04.286Z,-3.10
2023-02-07T04:51:32.584Z,-3.00
2023-02-07T04:54:01.558Z,-3.50
2023-02-07T04:56:30.148Z,-3.72
2023-02-07T04:59:00.636Z,-3.99
2023-02-07T05:01:29.823Z,-3.94
2023-02-07T05:03:59.210Z,-4.05
2023-02-07T05:06:27.620Z,-3.92
2023-02-07T05:08:55.804Z,-3.70
2023-02-07T05:11:23.898Z,-3.69
2023-02-07T05:13:54.458Z,-3.52
2023-02-07T05:16:24.032Z,-4.01
2023-02-07T05:18:52.386Z,-3.84
2023-02-07T05:21:20.507Z,-3.89
2023-02-07T05:23:52.160Z,-4.02
2023-02-07T05:26:22.097Z,-3.75
2023-02-07T05:28:51.644Z,-4.13
2023-02-07T05:31:19.812Z,-4.09
2023-02-07T05:33:50.027Z,-4.47
2023-02-07T05:36:18.168Z,-4.56
2023-02-07T05:38:46.120Z,-4.87
2023-02-07T05:41:14.045Z,-5.04
2023-02-07T05:43:42.425Z,-4.02
2023-02-07T05:46:10.495Z,-4.17
2023-02-07T05:48:39.434Z,-4.07
2023-02-07T05:51:08.984Z,-4.03
2023-02-07T05:53:37.019Z,-4.31
2023-02-07T05:56:06.464Z,-4.15
2023-02-07T05:58:35.402Z,-4.66
2023-02-07T06:01:03.521Z,-4.40
2023-02-07T06:03:31.532Z,-4.25
2023-02-07T06:05:59.645Z,-4.14
2023-02-07T06:08:29.520Z,-4.39
2023-02-07T06:10:57.854Z,-4.58
2023-02-07T06:13:26.794Z,-4.70
2023-02-07T06:15:55.132Z,-4.18
2023-02-07T06:18:24.935Z,-4.53
2023-02-07T06:20:55.128Z,-4.74
2023-02-07T06:23:23.259Z,-4.64
2023-02-07T06:25:53.253Z,-4.10
2023-02-07T06:28:21.738Z,-4.38
2023-02-07T06:30:52.241Z,-4.62
2023-02-07T06:33:20.673Z,-4.47
2023-02-07T06:35:49.680Z,-4.21
2023-02-07T06:38:19.031Z,-4.50
2023-02-07T06:40:47.037Z,-4.54
2023-02-07T06:43:17.424Z,-5.03
2023-02-07T06:45:45.899Z,-4.85
2023-02-07T06:51:20.403Z,-4.34
2023-02-07T06:53:48.589Z,-4.52
2023-02-07T06:56:18.559Z,-4.41
2023-02-07T06:58:51.771Z,-4.21
2023-02-07T07:04:05.583Z,-3.81
2023-02-07T07:06:34.217Z,-3.90
2023-02-07T07:09:02.950Z,-3.73
2023-02-07T07:11:33.262Z,-3.41
2023-02-07T07:14:04.515Z,-3.56
2023-02-07T07:16:34.482Z,-3.26
2023-02-07T07:19:03.162Z,-3.34
2023-02-07T07:21:32.565Z,-3.02
2023-02-07T07:24:01.200Z,-3.14
2023-02-07T07:26:46.622Z,-2.59
2023-02-07T07:29:21.960Z,-2.70
2023-02-07T07:31:50.700Z,-2.47
2023-02-07T07:34:20.263Z,-2.51
2023-02-07T07:36:50.177Z,-2.67
2023-02-07T07:39:18.752Z,-2.49
2023-02-07T07:41:47.299Z,-2.50
2023-02-07T07:44:16.365Z,-2.37
2023-02-07T07:46:47.661Z,-2.43
2023-02-07T07:49:15.776Z,-2.27
2023-02-07T07:51:44.230Z,-2.19
2023-02-07T07:54:15.162Z,-2.20
2023-02-07T07:56:49.056Z,-2.25
2023-02-07T07:59:27.247Z,-2.21
2023-02-07T08:01:57.359Z,-2.26
2023-02-07T08:04:26.678Z,-2.15
2023-02-07T08:06:55.656Z,-1.96
2023-02-07T08:09:24.904Z,-2.14
2023-02-07T08:11:52.959Z,-2.05
2023-02-07T08:14:31.681Z,-2.17
2023-02-07T08:17:02.324Z,-2.03
2023-02-07T08:19:31.924Z,-1.97
2023-02-07T08:22:11.308Z,-1.88
2023-02-07T08:24:43.809Z,-1.94
2023-02-07T08:27:12.920Z,-1.86
2023-02-07T08:32:40.125Z,-1.84
2023-02-07T08:35:10.243Z,-1.79
2023-02-07T08:38:08.511Z,-1.63
2023-02-07T08:40:38.796Z,-1.69
2023-02-07T08:46:11.671Z,-1.50
2023-02-07T08:48:41.885Z,-1.52
2023-02-07T08:51:12.754Z,-1.47
2023-02-07T08:53:42.972Z,-1.49
2023-02-07T08:56:11.292Z,-1.39
2023-02-07T08:58:41.059Z,-1.21
2023-02-07T09:01:15.206Z,-0.55
2023-02-07T09:03:45.518Z,0.09
2023-02-07T09:06:14.751Z,0.77
2023-02-07T09:08:43.897Z,1.07
2023-02-07T09:11:18.705Z,1.42
2023-02-07T09:13:47.498Z,1.38
2023-02-07T09:16:16.912Z,1.89
2023-02-07T09:18:47.408Z,2.16
2023-02-07T09:21:15.724Z,2.53
2023-02-07T09:23:44.059Z,3.12
2023-02-07T09:26:17.289Z,3.44
2023-02-07T09:28:55.815Z,3.63
2023-02-07T09:31:24.856Z,3.64
2023-02-07T09:33:56.919Z,4.00
2023-02-07T09:36:29.277Z,3.63
2023-02-07T09:39:05.439Z,4.53
2023-02-07T09:41:41.109Z,4.44
2023-02-07T09:44:27.631Z,4.66
2023-02-07T09:47:03.240Z,4.74
2023-02-07T09:49:44.645Z,4.83
2023-02-07T09:52:19.650Z,5.08
2023-02-07T09:54:53.008Z,4.77
2023-02-07T09:57:27.953Z,4.31
2023-02-07T10:00:01.298Z,4.53
2023-02-07T10:02:59.860Z,4.90
2023-02-07T10:05:51.993Z,4.66
2023-02-07T10:09:03.178Z,4.88
2023-02-07T10:11:45.763Z,5.01
2023-02-07T10:14:33.620Z,4.67
2023-02-07T10:17:31.531Z,4.86
2023-02-07T10:20:27.128Z,5.35
2023-02-07T10:23:07.980Z,4.90
2023-02-07T10:25:49.573Z,4.37
2023-02-07T10:28:46.103Z,4.48
2023-02-07T10:31:18.692Z,4.21
2023-02-07T10:33:56.412Z,4.63
2023-02-07T10:36:26.295Z,4.30
2023-02-07T10:39:09.387Z,4.54
2023-02-07T10:41:41.989Z,4.26
2023-02-07T10:44:13.489Z,4.18
2023-02-07T10:46:44.710Z,4.43
2023-02-07T10:49:24.756Z,4.10
2023-02-07T10:51:56.945Z,4.15
2023-02-07T10:54:26.433Z,4.01
2023-02-07T10:57:01.641Z,4.14
2023-02-07T10:59:45.933Z,4.64
2023-02-07T11:02:52.134Z,4.67
2023-02-07T11:05:51.855Z,4.81
2023-02-07T11:08:23.126Z,5.64
2023-02-07T11:11:00.042Z,5.65
2023-02-07T11:13:29.795Z,5.68
2023-02-07T11:16:01.737Z,6.13
2023-02-07T11:18:45.468Z,5.81
2023-02-07T11:21:28.351Z,5.51
2023-02-07T11:24:00.953Z,5.92
2023-02-07T11:26:31.187Z,5.31
2023-02-07T11:29:07.963Z,5.19
2023-02-07T11:31:38.837Z,5.33
2023-02-07T11:34:30.924Z,5.68
2023-02-07T11:37:11.874Z,5.49
2023-02-07T11:39:44.812Z,5.70
2023-02-07T11:42:19.946Z,6.39
2023-02-07T11:44:51.150Z,6.65
2023-02-07T11:47:23.717Z,6.22
2023-02-07T11:49:54.655Z,7.22
2023-02-07T11:52:23.087Z,7.46
2023-02-07T11:54:56.236Z,7.50
2023-02-07T11:57:31.383Z,7.08
2023-02-07T12:00:08.299Z,7.47
2023-02-07T12:02:39.099Z,6.77
2023-02-07T12:05:18.576Z,7.54
2023-02-07T12:08:05.421Z,7.96
2023-02-07T12:10:37.317Z,7.35
2023-02-07T12:13:12.899Z,7.36
2023-02-07T12:15:52.243Z,7.40
2023-02-07T12:18:32.633Z,7.40
2023-02-07T12:21:06.921Z,8.27
2023-02-07T12:23:44.410Z,9.11
2023-02-07T12:26:24.381Z,8.60
2023-02-07T12:29:24.816Z,9.55
2023-02-07T12:32:02.489Z,9.08
2023-02-07T12:34:35.744Z,9.57
2023-02-07T12:37:13.370Z,8.54
2023-02-07T12:39:47.744Z,7.73
2023-02-07T12:42:34.990Z,8.77
2023-02-07T12:45:06.845Z,9.03
2023-02-07T12:47:57.271Z,9.65
2023-02-07T12:50:48.508Z,9.94
2023-02-07T12:53:31.914Z,10.44
2023-02-07T12:56:10.090Z,10.24
2023-02-07T12:58:51.094Z,9.56
2023-02-07T13:01:35.942Z,9.20
2023-02-07T13:04:43.604Z,9.55
2023-02-07T13:07:23.549Z,10.05
2023-02-07T13:10:01.953Z,9.78
2023-02-07T13:12:35.350Z,9.41
2023-02-07T13:15:17.943Z,9.47
2023-02-07T13:17:56.281Z,10.24
2023-02-07T13:20:38.059Z,9.48
2023-02-07T13:23:17.963Z,9.55
2023-02-07T13:25:49.328Z,8.52
2023-02-07T13:28:24.789Z,8.72
2023-02-07T13:30:54.951Z,9.15
2023-02-07T13:33:34.218Z,9.35
2023-02-07T13:36:11.245Z,8.72
2023-02-07T13:38:50.681Z,9.06
2023-02-07T13:41:33.212Z,9.14
2023-02-07T13:44:12.591Z,8.09
2023-02-07T13:47:17.480Z,8.09
2023-02-07T13:49:53.984Z,8.29
2023-02-07T13:52:31.505Z,7.85
2023-02-07T13:55:11.645Z,7.95
2023-02-07T13:58:00.897Z,7.70
2023-02-07T14:00:31.869Z,8.42
2023-02-07T14:03:03.540Z,8.05
2023-02-07T14:05:35.494Z,8.26
2023-02-07T14:08:06.829Z,8.30
2023-02-07T14:10:41.074Z,9.32
2023-02-07T14:13:22.244Z,9.42
2023-02-07T14:16:00.221Z,9.16
2023-02-07T14:18:49.953Z,9.69
2023-02-07T14:21:42.859Z,9.19
2023-02-07T14:24:33.095Z,8.59
2023-02-07T14:27:31.658Z,9.03
2023-02-07T14:30:20.072Z,10.27
2023-02-07T14:33:13.355Z,10.42
2023-02-07T14:36:04.954Z,9.87
2023-02-07T14:38:37.556Z,10.18
2023-02-07T14:41:11.333Z,9.29
2023-02-07T14:44:07.550Z,9.89
2023-02-07T14:46:42.138Z,10.62
2023-02-07T14:49:19.729Z,8.97
2023-02-07T14:51:55.501Z,9.08
2023-02-07T14:54:30.329Z,9.54
2023-02-07T14:57:10.117Z,9.63
2023-02-07T14:59:45.795Z,9.95
2023-02-07T15:02:37.819Z,9.29
2023-02-07T15:05:22.336Z,9.27
2023-02-07T15:08:07.859Z,9.80
2023-02-07T15:10:39.535Z,9.88
2023-02-07T15:13:19.523Z,10.84
2023-02-07T15:15:57.196Z,11.12
2023-02-07T15:18:28.990Z,10.07
2023-02-07T15:20:58.733Z,10.02
2023-02-07T15:23:34.649Z,8.51
2023-02-07T15:26:08.012Z,6.77
2023-02-07T15:28:36.534Z,5.89
2023-02-07T15:31:12.413Z,5.53
2023-02-07T15:33:42.724Z,4.96
2023-02-07T15:36:32.806Z,4.40
2023-02-07T15:39:04.443Z,4.11
2023-02-07T15:41:32.833Z,3.87
2023-02-07T15:44:02.574Z,3.60
2023-02-07T15:46:47.760Z,3.36
2023-02-07T15:49:31.006Z,3.18
2023-02-07T15:52:04.442Z,2.88
2023-02-07T15:54:40.424Z,2.86
2023-02-07T15:57:14.096Z,2.90
2023-02-07T15:59:45.043Z,2.78
2023-02-07T16:02:24.126Z,2.71
2023-02-07T16:04:52.404Z,2.54
2023-02-07T16:07:20.977Z,2.53
2023-02-07T16:09:49.738Z,2.53
2023-02-07T16:12:42.823Z,2.80
2023-02-07T16:15:25.384Z,2.48
2023-02-07T16:17:55.704Z,2.32
2023-02-07T16:20:24.254Z,2.26
2023-02-07T16:22:53.595Z,2.10
2023-02-07T16:25:23.729Z,1.83
2023-02-07T16:27:53.605Z,1.71
2023-02-07T16:30:25.418Z,1.49
2023-02-07T16:32:54.683Z,1.43
2023-02-07T16:35:25.905Z,1.42
2023-02-07T16:37:55.148Z,1.10
2023-02-07T16:40:26.603Z,1.23
2023-02-07T16:43:04.733Z,0.84
2023-02-07T16:45:32.720Z,0.54
2023-02-07T16:48:02.118Z,0.43
2023-02-07T16:50:31.584Z,0.36
2023-02-07T16:53:00.732Z,0.22
2023-02-07T16:55:30.678Z,0.12
2023-02-07T16:57:59.442Z,0.04
2023-02-07T17:00:27.916Z,0.11
2023-02-07T17:02:55.850Z,-0.09
2023-02-07T17:05:25.516Z,-0.16
2023-02-07T17:07:53.705Z,-0.21
2023-02-07T17:10:26.225Z,-0.48
2023-02-07T17:12:54.676Z,-0.67
2023-02-07T17:15:23.253Z,-0.76
2023-02-07T17:17:52.965Z,-0.55
2023-02-07T17:20:26.162Z,-0.77
2023-02-07T17:22:54.612Z,-1.02
2023-02-07T17:25:25.870Z,-1.16
2023-02-07T17:27:54.155Z,-1.09
2023-02-07T17:30:26.147Z,-1.23
2023-02-07T17:32:55.596Z,-0.99
2023-02-07T17:35:26.118Z,-1.05
2023-02-07T17:37:54.244Z,-1.19
2023-02-07T17:40:28.438Z,-1.20
2023-02-07T17:42:56.763Z,-1.28
2023-02-07T17:45:25.218Z,-1.30
2023-02-07T17:47:53.814Z,-1.32
2023-02-07T17:50:26.585Z,-1.49
2023-02-07T17:52:54.625Z,-1.52
2023-02-07T17:55:22.997Z,-1.56
2023-02-07T17:57:51.370Z,-1.53
2023-02-07T18:00:22.208Z,-1.56
2023-02-07T18:02:50.507Z,-1.65
2023-02-07T18:05:21.788Z,-1.61
2023-02-07T18:07:57.025Z,-1.74
2023-02-07T18:10:29.803Z,-1.74
2023-02-07T18:12:58.556Z,-1.74
2023-02-07T18:15:27.572Z,-2.19
2023-02-07T18:17:55.983Z,-2.22
2023-02-07T18:20:26.427Z,-2.13
2023-02-07T18:22:57.944Z,-2.26
2023-02-07T18:25:28.261Z,-2.29
2023-02-07T18:27:57.547Z,-2.40
2023-02-07T18:30:27.866Z,-2.34
2023-02-07T18:32:55.868Z,-1.99
2023-02-07T18:35:23.948Z,-2.00
2023-02-07T18:37:51.903Z,-1.89
2023-02-07T18:40:21.585Z,-1.85
2023-02-07T18:42:49.902Z,-1.90
2023-02-07T18:45:18.243Z,-1.97
2023-02-07T18:47:46.516Z,-2.15
2023-02-07T18:50:15.918Z,-2.26
2023-02-07T18:52:44.004Z,-2.38
2023-02-07T18:55:12.294Z,-2.52
2023-02-07T18:57:42.142Z,-2.71
2023-02-07T19:00:11.863Z,-2.83
2023-02-07T19:02:42.012Z,-2.77
2023-02-07T19:05:10.992Z,-3.03
2023-02-07T19:07:39.024Z,-3.13
2023-02-07T19:10:07.339Z,-3.21
2023-02-07T19:12:35.305Z,-3.31
2023-02-07T19:15:05.631Z,-3.26
2023-02-07T19:17:33.655Z,-3.24
2023-02-07T19:20:01.587Z,-3.07
2023-02-07T19:22:35.780Z,-2.74
2023-02-07T19:25:05.196Z,-2.05
2023-02-07T19:27:33.119Z,-1.98
2023-02-07T19:30:01.281Z,-1.94
2023-02-07T19:32:37.904Z,-2.18
2023-02-07T19:35:12.318Z,-2.56
2023-02-07T19:37:40.287Z,-2.79
2023-02-07T19:40:09.345Z,-3.06
2023-02-07T19:42:37.339Z,-3.07
2023-02-07T19:45:05.921Z,-3.17
2023-02-07T19:47:33.802Z,-3.15
2023-02-07T19:50:03.307Z,-3.35
2023-02-07T19:52:31.374Z,-3.58
2023-02-07T19:54:59.357Z,-3.66
2023-02-07T19:57:27.587Z,-3.70
2023-02-07T19:59:55.683Z,-3.48
2023-02-07T20:02:24.574Z,-3.53
2023-02-07T20:04:54.808Z,-3.48
2023-02-07T20:07:24.606Z,-3.62
2023-02-07T20:09:52.946Z,-3.50
2023-02-07T20:12:23.385Z,-3.78
2023-02-07T20:14:52.318Z,-3.17
2023-02-07T20:17:20.368Z,-3.36
2023-02-07T20:19:48.663Z,-3.73
2023-02-07T20:22:16.740Z,-3.93
2023-02-07T20:24:47.261Z,-3.85
2023-02-07T20:27:15.309Z,-4.09
2023-02-07T20:29:44.360Z,-3.97
2023-02-07T20:32:14.164Z,-3.76
2023-02-07T20:34:45.399Z,-3.86
2023-02-07T20:37:13.473Z,-3.83
2023-02-07T20:39:41.471Z,-4.05
2023-02-07T20:42:10.855Z,-3.80
2023-02-07T20:44:39.036Z,-3.67
2023-02-07T20:47:07.357Z,-3.80
2023-02-07T20:49:35.456Z,-3.27
2023-02-07T20:52:04.043Z,-2.92
2023-02-07T20:54:32.818Z,-3.23
2023-02-07T20:57:02.275Z,-3.55
2023-02-07T20:59:33.858Z,-2.86
2023-02-07T21:02:08.316Z,-3.22
2023-02-07T21:04:37.499Z,-3.20
2023-02-07T21:07:07.607Z,-3.34
2023-02-07T21:09:35.970Z,-3.52
2023-02-07T21:12:05.939Z,-2.95
2023-02-07T21:14:37.453Z,-2.96
2023-02-07T21:22:46.077Z,-2.33
2023-02-07T21:25:21.899Z,-2.43
2023-02-07T21:27:52.127Z,-2.56
2023-02-07T21:30:40.023Z,-2.91
2023-02-07T21:33:08.735Z,-3.21
2023-02-07T21:35:39.828Z,-3.40
2023-02-07T21:38:08.248Z,-3.46
2023-02-07T21:40:36.736Z,-3.67
2023-02-07T21:43:08.186Z,-3.78
2023-02-07T21:45:38.756Z,-4.08
2023-02-07T21:48:07.603Z,-3.99
2023-02-07T21:50:36.024Z,-4.20
2023-02-07T21:53:04.144Z,-4.04
2023-02-07T21:55:32.271Z,-4.07
2023-02-07T21:58:01.474Z,-3.67
2023-02-07T22:00:29.858Z,-3.45
2023-02-07T22:03:06.888Z,-3.52
2023-02-07T22:05:35.135Z,-3.94
2023-02-07T22:08:03.311Z,-4.09
2023-02-07T22:10:32.666Z,-3.40
2023-02-07T22:13:00.643Z,-3.81
2023-02-07T22:15:29.078Z,-3.90
2023-02-07T22:18:50.739Z,-4.11
2023-02-07T22:21:43.343Z,-3.66
2023-02-07T22:24:23.329Z,-3.70
2023-02-07T22:26:51.478Z,-3.94
2023-02-07T22:29:19.588Z,-4.13
2023-02-07T22:31:50.248Z,-4.15
2023-02-07T22:34:19.283Z,-4.20
2023-02-07T22:36:51.027Z,-4.39
2023-02-07T22:39:56.630Z,-4.38
2023-02-07T22:42:25.121Z,-4.18
2023-02-07T22:44:53.138Z,-4.11
2023-02-07T22:47:23.627Z,-4.30
2023-02-07T22:49:52.821Z,-4.40
2023-02-07T22:52:23.569Z,-4.58
2023-02-07T22:55:01.144Z,-4.36
2023-02-07T22:57:30.784Z,-4.53
2023-02-07T23:00:04.403Z,-4.34
2023-02-07T23:02:38.266Z,-4.34
2023-02-07T23:05:07.391Z,-4.07
2023-02-07T23:07:37.390Z,-3.51
2023-02-07T23:10:07.004Z,-3.68
2023-02-07T23:12:35.969Z,-4.10
2023-02-07T23:15:10.518Z,-4.47
2023-02-07T23:17:39.011Z,-4.43
2023-02-07T23:20:10.902Z,-4.76
2023-02-07T23:22:40.807Z,-4.07
2023-02-07T23:25:11.286Z,-4.45
2023-02-07T23:27:39.770Z,-4.74
2023-02-07T23:30:09.503Z,-4.56
2023-02-07T23:32:37.539Z,-3.99
2023-02-07T23:35:06.486Z,-4.23
2023-02-07T23:37:36.844Z,-4.67
2023-02-07T23:40:07.405Z,-4.12
2023-02-07T23:42:36.833Z,-4.15
2023-02-07T23:45:05.394Z,-4.56
2023-02-07T23:47:49.401Z,-4.65
2023-02-07T23:50:18.628Z,-4.95
2023-02-07T23:52:48.818Z,-4.76
2023-02-07T23:55:19.143Z,-4.35
2023-02-07T23:57:50.220Z,-4.14
